sensor_id;sensor_type;location;lat;lon;timestamp;P1;durP1;ratioP1;P2;durP2;ratioP2
55364;SDS011;41245;45.384;20.390;2024-02-26T00:00:26;22.83;;;8.68;;
55364;SDS011;41245;45.384;20.390;2024-02-26T00:02:53;16.95;;;9.65;;
55364;SDS011;41245;45.384;20.390;2024-02-26T00:05:20;20.90;;;10.90;;
55364;SDS011;41245;45.384;20.390;2024-02-26T00:07:46;15.25;;;9.85;;
55364;SDS011;41245;45.384;20.390;2024-02-26T00:10:12;18.17;;;11.18;;
55364;SDS011;41245;45.384;20.390;2024-02-26T00:12:39;24.92;;;12.30;;
55364;SDS011;41245;45.384;20.390;2024-02-26T00:15:08;34.70;;;12.18;;
55364;SDS011;41245;45.384;20.390;2024-02-26T00:17:35;21.27;;;12.65;;
55364;SDS011;41245;45.384;20.390;2024-02-26T00:20:02;21.67;;;12.43;;
55364;SDS011;41245;45.384;20.390;2024-02-26T00:22:30;25.90;;;12.90;;
55364;SDS011;41245;45.384;20.390;2024-02-26T00:24:56;19.60;;;11.90;;
55364;SDS011;41245;45.384;20.390;2024-02-26T00:27:22;19.75;;;12.43;;
55364;SDS011;41245;45.384;20.390;2024-02-26T00:29:48;18.48;;;12.40;;
55364;SDS011;41245;45.384;20.390;2024-02-26T00:32:14;21.75;;;12.63;;
55364;SDS011;41245;45.384;20.390;2024-02-26T00:34:40;21.38;;;12.10;;
55364;SDS011;41245;45.384;20.390;2024-02-26T00:37:06;17.77;;;11.10;;
55364;SDS011;41245;45.384;20.390;2024-02-26T00:39:32;19.48;;;11.88;;
55364;SDS011;41245;45.384;20.390;2024-02-26T00:41:58;20.48;;;11.93;;
55364;SDS011;41245;45.384;20.390;2024-02-26T00:44:24;22.73;;;10.50;;
55364;SDS011;41245;45.384;20.390;2024-02-26T00:46:50;21.90;;;11.45;;
55364;SDS011;41245;45.384;20.390;2024-02-26T00:49:16;20.58;;;11.65;;
55364;SDS011;41245;45.384;20.390;2024-02-26T00:51:43;17.77;;;11.45;;
55364;SDS011;41245;45.384;20.390;2024-02-26T00:54:09;19.48;;;12.15;;
55364;SDS011;41245;45.384;20.390;2024-02-26T00:56:35;23.95;;;13.15;;
55364;SDS011;41245;45.384;20.390;2024-02-26T00:59:01;20.02;;;12.80;;
55364;SDS011;41245;45.384;20.390;2024-02-26T01:01:27;20.73;;;12.75;;
55364;SDS011;41245;45.384;20.390;2024-02-26T01:03:53;21.67;;;13.30;;
55364;SDS011;41245;45.384;20.390;2024-02-26T01:06:19;21.33;;;12.77;;
55364;SDS011;41245;45.384;20.390;2024-02-26T01:08:47;20.92;;;13.10;;
55364;SDS011;41245;45.384;20.390;2024-02-26T01:11:13;19.98;;;12.65;;
55364;SDS011;41245;45.384;20.390;2024-02-26T01:13:39;23.55;;;13.75;;
55364;SDS011;41245;45.384;20.390;2024-02-26T01:16:05;24.92;;;15.10;;
55364;SDS011;41245;45.384;20.390;2024-02-26T01:18:31;22.33;;;14.73;;
55364;SDS011;41245;45.384;20.390;2024-02-26T01:20:57;28.35;;;17.67;;
55364;SDS011;41245;45.384;20.390;2024-02-26T01:23:23;27.77;;;17.20;;
55364;SDS011;41245;45.384;20.390;2024-02-26T01:25:49;25.27;;;14.90;;
55364;SDS011;41245;45.384;20.390;2024-02-26T01:28:16;23.33;;;15.60;;
55364;SDS011;41245;45.384;20.390;2024-02-26T01:30:42;21.50;;;14.40;;
55364;SDS011;41245;45.384;20.390;2024-02-26T01:33:08;26.52;;;16.38;;
55364;SDS011;41245;45.384;20.390;2024-02-26T01:35:34;28.63;;;17.00;;
55364;SDS011;41245;45.384;20.390;2024-02-26T01:38:01;25.25;;;15.98;;
55364;SDS011;41245;45.384;20.390;2024-02-26T01:40:27;32.30;;;18.02;;
55364;SDS011;41245;45.384;20.390;2024-02-26T01:42:53;27.63;;;17.63;;
55364;SDS011;41245;45.384;20.390;2024-02-26T01:45:19;27.25;;;16.40;;
55364;SDS011;41245;45.384;20.390;2024-02-26T01:47:51;26.08;;;15.50;;
55364;SDS011;41245;45.384;20.390;2024-02-26T01:50:18;23.92;;;14.50;;
55364;SDS011;41245;45.384;20.390;2024-02-26T01:52:45;26.15;;;16.38;;
55364;SDS011;41245;45.384;20.390;2024-02-26T01:55:12;24.65;;;14.43;;
55364;SDS011;41245;45.384;20.390;2024-02-26T01:57:39;28.35;;;15.13;;
55364;SDS011;41245;45.384;20.390;2024-02-26T02:00:08;27.20;;;16.40;;
55364;SDS011;41245;45.384;20.390;2024-02-26T02:02:35;23.58;;;14.45;;
55364;SDS011;41245;45.384;20.390;2024-02-26T02:05:03;25.70;;;14.52;;
55364;SDS011;41245;45.384;20.390;2024-02-26T02:07:30;27.35;;;16.08;;
55364;SDS011;41245;45.384;20.390;2024-02-26T02:09:56;23.60;;;16.02;;
55364;SDS011;41245;45.384;20.390;2024-02-26T02:12:23;27.23;;;16.80;;
55364;SDS011;41245;45.384;20.390;2024-02-26T02:14:49;25.67;;;15.90;;
55364;SDS011;41245;45.384;20.390;2024-02-26T02:17:15;28.50;;;16.35;;
55364;SDS011;41245;45.384;20.390;2024-02-26T02:19:41;28.88;;;16.98;;
55364;SDS011;41245;45.384;20.390;2024-02-26T02:22:07;28.77;;;15.32;;
55364;SDS011;41245;45.384;20.390;2024-02-26T02:24:33;29.10;;;16.80;;
55364;SDS011;41245;45.384;20.390;2024-02-26T02:26:59;24.73;;;16.08;;
55364;SDS011;41245;45.384;20.390;2024-02-26T02:29:25;29.30;;;16.80;;
55364;SDS011;41245;45.384;20.390;2024-02-26T02:31:52;25.88;;;15.63;;
55364;SDS011;41245;45.384;20.390;2024-02-26T02:34:19;27.50;;;17.58;;
55364;SDS011;41245;45.384;20.390;2024-02-26T02:36:52;28.13;;;16.60;;
55364;SDS011;41245;45.384;20.390;2024-02-26T02:39:18;30.77;;;17.25;;
55364;SDS011;41245;45.384;20.390;2024-02-26T02:41:44;26.70;;;17.13;;
55364;SDS011;41245;45.384;20.390;2024-02-26T02:44:10;29.95;;;16.88;;
55364;SDS011;41245;45.384;20.390;2024-02-26T02:46:36;27.13;;;15.93;;
55364;SDS011;41245;45.384;20.390;2024-02-26T02:49:03;31.30;;;17.50;;
55364;SDS011;41245;45.384;20.390;2024-02-26T02:51:29;31.95;;;17.50;;
55364;SDS011;41245;45.384;20.390;2024-02-26T02:53:55;31.55;;;18.48;;
55364;SDS011;41245;45.384;20.390;2024-02-26T02:56:21;30.83;;;19.83;;
55364;SDS011;41245;45.384;20.390;2024-02-26T02:58:47;28.70;;;16.92;;
55364;SDS011;41245;45.384;20.390;2024-02-26T03:01:13;28.40;;;16.95;;
55364;SDS011;41245;45.384;20.390;2024-02-26T03:03:39;27.45;;;17.10;;
55364;SDS011;41245;45.384;20.390;2024-02-26T03:06:05;35.42;;;18.08;;
55364;SDS011;41245;45.384;20.390;2024-02-26T03:08:31;31.58;;;18.58;;
55364;SDS011;41245;45.384;20.390;2024-02-26T03:10:58;33.10;;;17.77;;
55364;SDS011;41245;45.384;20.390;2024-02-26T03:13:24;27.58;;;17.60;;
55364;SDS011;41245;45.384;20.390;2024-02-26T03:15:50;35.60;;;19.42;;
55364;SDS011;41245;45.384;20.390;2024-02-26T03:18:17;31.63;;;18.80;;
55364;SDS011;41245;45.384;20.390;2024-02-26T03:20:43;32.05;;;18.92;;
55364;SDS011;41245;45.384;20.390;2024-02-26T03:23:09;34.30;;;19.55;;
55364;SDS011;41245;45.384;20.390;2024-02-26T03:25:38;32.05;;;19.00;;
55364;SDS011;41245;45.384;20.390;2024-02-26T03:28:05;31.40;;;18.95;;
55364;SDS011;41245;45.384;20.390;2024-02-26T03:30:31;34.92;;;19.13;;
55364;SDS011;41245;45.384;20.390;2024-02-26T03:32:57;30.80;;;18.70;;
55364;SDS011;41245;45.384;20.390;2024-02-26T03:35:23;29.60;;;18.02;;
55364;SDS011;41245;45.384;20.390;2024-02-26T03:37:49;29.55;;;18.27;;
55364;SDS011;41245;45.384;20.390;2024-02-26T03:40:16;30.58;;;18.33;;
55364;SDS011;41245;45.384;20.390;2024-02-26T03:42:44;31.15;;;18.70;;
55364;SDS011;41245;45.384;20.390;2024-02-26T03:45:10;35.47;;;16.35;;
55364;SDS011;41245;45.384;20.390;2024-02-26T03:47:39;31.02;;;16.85;;
55364;SDS011;41245;45.384;20.390;2024-02-26T03:50:06;36.00;;;19.42;;
55364;SDS011;41245;45.384;20.390;2024-02-26T03:52:32;30.67;;;17.92;;
55364;SDS011;41245;45.384;20.390;2024-02-26T03:54:59;28.40;;;17.33;;
55364;SDS011;41245;45.384;20.390;2024-02-26T03:57:25;30.67;;;18.85;;
55364;SDS011;41245;45.384;20.390;2024-02-26T03:59:51;33.60;;;17.92;;
55364;SDS011;41245;45.384;20.390;2024-02-26T04:02:17;30.55;;;18.52;;
55364;SDS011;41245;45.384;20.390;2024-02-26T04:04:45;31.35;;;18.63;;
55364;SDS011;41245;45.384;20.390;2024-02-26T04:07:11;36.17;;;18.13;;
55364;SDS011;41245;45.384;20.390;2024-02-26T04:09:38;31.17;;;18.27;;
55364;SDS011;41245;45.384;20.390;2024-02-26T04:12:04;33.08;;;18.67;;
55364;SDS011;41245;45.384;20.390;2024-02-26T04:14:30;33.85;;;17.95;;
55364;SDS011;41245;45.384;20.390;2024-02-26T04:16:56;35.60;;;19.52;;
55364;SDS011;41245;45.384;20.390;2024-02-26T04:19:22;28.40;;;18.50;;
55364;SDS011;41245;45.384;20.390;2024-02-26T04:21:48;41.20;;;20.98;;
55364;SDS011;41245;45.384;20.390;2024-02-26T04:24:14;32.92;;;19.17;;
55364;SDS011;41245;45.384;20.390;2024-02-26T04:26:41;37.47;;;21.35;;
55364;SDS011;41245;45.384;20.390;2024-02-26T04:29:07;34.55;;;20.13;;
55364;SDS011;41245;45.384;20.390;2024-02-26T04:31:33;37.22;;;20.83;;
55364;SDS011;41245;45.384;20.390;2024-02-26T04:33:59;41.22;;;21.35;;
55364;SDS011;41245;45.384;20.390;2024-02-26T04:36:25;37.33;;;22.35;;
55364;SDS011;41245;45.384;20.390;2024-02-26T04:38:51;38.03;;;22.15;;
55364;SDS011;41245;45.384;20.390;2024-02-26T04:41:19;35.17;;;22.05;;
55364;SDS011;41245;45.384;20.390;2024-02-26T04:43:45;45.03;;;21.83;;
55364;SDS011;41245;45.384;20.390;2024-02-26T04:46:11;40.63;;;21.38;;
55364;SDS011;41245;45.384;20.390;2024-02-26T04:48:38;39.83;;;19.88;;
55364;SDS011;41245;45.384;20.390;2024-02-26T04:51:04;39.00;;;22.40;;
55364;SDS011;41245;45.384;20.390;2024-02-26T04:53:30;45.58;;;21.05;;
55364;SDS011;41245;45.384;20.390;2024-02-26T04:55:56;45.75;;;21.08;;
55364;SDS011;41245;45.384;20.390;2024-02-26T04:58:22;40.40;;;20.73;;
55364;SDS011;41245;45.384;20.390;2024-02-26T05:00:49;37.78;;;20.67;;
55364;SDS011;41245;45.384;20.390;2024-02-26T05:03:15;35.28;;;21.15;;
55364;SDS011;41245;45.384;20.390;2024-02-26T05:05:42;39.95;;;21.63;;
55364;SDS011;41245;45.384;20.390;2024-02-26T05:08:08;38.22;;;20.50;;
55364;SDS011;41245;45.384;20.390;2024-02-26T05:10:34;38.00;;;21.25;;
55364;SDS011;41245;45.384;20.390;2024-02-26T05:13:04;43.85;;;22.92;;
55364;SDS011;41245;45.384;20.390;2024-02-26T05:15:30;45.45;;;22.67;;
55364;SDS011;41245;45.384;20.390;2024-02-26T05:17:57;42.60;;;21.80;;
55364;SDS011;41245;45.384;20.390;2024-02-26T05:20:24;37.67;;;22.60;;
55364;SDS011;41245;45.384;20.390;2024-02-26T05:22:50;46.08;;;23.75;;
55364;SDS011;41245;45.384;20.390;2024-02-26T05:25:16;38.88;;;22.15;;
55364;SDS011;41245;45.384;20.390;2024-02-26T05:27:43;41.50;;;21.60;;
55364;SDS011;41245;45.384;20.390;2024-02-26T05:30:09;36.25;;;20.48;;
55364;SDS011;41245;45.384;20.390;2024-02-26T05:32:35;39.05;;;21.38;;
55364;SDS011;41245;45.384;20.390;2024-02-26T05:35:01;42.20;;;21.63;;
55364;SDS011;41245;45.384;20.390;2024-02-26T05:37:30;38.10;;;21.50;;
55364;SDS011;41245;45.384;20.390;2024-02-26T05:39:56;39.90;;;21.42;;
55364;SDS011;41245;45.384;20.390;2024-02-26T05:42:23;40.92;;;21.13;;
55364;SDS011;41245;45.384;20.390;2024-02-26T05:44:49;45.15;;;22.42;;
55364;SDS011;41245;45.384;20.390;2024-02-26T05:47:15;45.60;;;22.30;;
55364;SDS011;41245;45.384;20.390;2024-02-26T05:49:42;37.90;;;20.08;;
55364;SDS011;41245;45.384;20.390;2024-02-26T05:52:08;43.83;;;21.83;;
55364;SDS011;41245;45.384;20.390;2024-02-26T05:54:34;43.78;;;21.95;;
55364;SDS011;41245;45.384;20.390;2024-02-26T05:57:01;33.47;;;19.42;;
55364;SDS011;41245;45.384;20.390;2024-02-26T05:59:27;44.38;;;18.33;;
55364;SDS011;41245;45.384;20.390;2024-02-26T06:01:53;38.80;;;19.20;;
55364;SDS011;41245;45.384;20.390;2024-02-26T06:04:19;36.08;;;19.48;;
55364;SDS011;41245;45.384;20.390;2024-02-26T06:06:45;30.02;;;16.73;;
55364;SDS011;41245;45.384;20.390;2024-02-26T06:09:11;36.67;;;17.63;;
55364;SDS011;41245;45.384;20.390;2024-02-26T06:11:37;40.25;;;17.55;;
55364;SDS011;41245;45.384;20.390;2024-02-26T06:14:03;34.60;;;17.42;;
55364;SDS011;41245;45.384;20.390;2024-02-26T06:16:30;39.22;;;18.27;;
55364;SDS011;41245;45.384;20.390;2024-02-26T06:18:56;34.90;;;17.90;;
55364;SDS011;41245;45.384;20.390;2024-02-26T06:21:22;30.65;;;16.88;;
55364;SDS011;41245;45.384;20.390;2024-02-26T06:23:48;43.10;;;16.77;;
55364;SDS011;41245;45.384;20.390;2024-02-26T06:26:15;36.85;;;18.38;;
55364;SDS011;41245;45.384;20.390;2024-02-26T06:28:41;35.70;;;16.52;;
55364;SDS011;41245;45.384;20.390;2024-02-26T06:31:07;39.92;;;18.08;;
55364;SDS011;41245;45.384;20.390;2024-02-26T06:33:33;41.53;;;18.50;;
55364;SDS011;41245;45.384;20.390;2024-02-26T06:36:00;34.00;;;16.48;;
55364;SDS011;41245;45.384;20.390;2024-02-26T06:38:26;30.13;;;17.08;;
55364;SDS011;41245;45.384;20.390;2024-02-26T06:40:52;34.83;;;17.15;;
55364;SDS011;41245;45.384;20.390;2024-02-26T06:43:18;38.60;;;17.95;;
55364;SDS011;41245;45.384;20.390;2024-02-26T06:45:44;35.88;;;16.27;;
55364;SDS011;41245;45.384;20.390;2024-02-26T06:48:10;29.58;;;16.83;;
55364;SDS011;41245;45.384;20.390;2024-02-26T06:50:36;32.38;;;17.45;;
55364;SDS011;41245;45.384;20.390;2024-02-26T06:53:02;28.63;;;17.05;;
55364;SDS011;41245;45.384;20.390;2024-02-26T06:55:28;31.20;;;16.63;;
55364;SDS011;41245;45.384;20.390;2024-02-26T06:57:54;30.80;;;16.95;;
55364;SDS011;41245;45.384;20.390;2024-02-26T07:00:20;31.85;;;16.75;;
55364;SDS011;41245;45.384;20.390;2024-02-26T07:02:46;32.30;;;17.05;;
55364;SDS011;41245;45.384;20.390;2024-02-26T07:05:12;32.28;;;15.60;;
55364;SDS011;41245;45.384;20.390;2024-02-26T07:07:39;32.88;;;16.98;;
55364;SDS011;41245;45.384;20.390;2024-02-26T07:10:05;30.35;;;17.00;;
55364;SDS011;41245;45.384;20.390;2024-02-26T07:12:32;43.00;;;15.93;;
55364;SDS011;41245;45.384;20.390;2024-02-26T07:14:58;32.85;;;17.42;;
55364;SDS011;41245;45.384;20.390;2024-02-26T07:17:24;31.38;;;16.35;;
55364;SDS011;41245;45.384;20.390;2024-02-26T07:19:50;35.47;;;18.08;;
55364;SDS011;41245;45.384;20.390;2024-02-26T07:22:16;31.58;;;16.75;;
55364;SDS011;41245;45.384;20.390;2024-02-26T07:24:42;37.15;;;17.40;;
55364;SDS011;41245;45.384;20.390;2024-02-26T07:27:08;31.98;;;16.45;;
55364;SDS011;41245;45.384;20.390;2024-02-26T07:29:34;31.98;;;16.55;;
55364;SDS011;41245;45.384;20.390;2024-02-26T07:32:00;36.97;;;16.73;;
55364;SDS011;41245;45.384;20.390;2024-02-26T07:34:26;32.70;;;17.35;;
55364;SDS011;41245;45.384;20.390;2024-02-26T07:36:54;34.65;;;17.27;;
55364;SDS011;41245;45.384;20.390;2024-02-26T07:39:21;31.98;;;16.98;;
55364;SDS011;41245;45.384;20.390;2024-02-26T07:41:47;33.78;;;16.92;;
55364;SDS011;41245;45.384;20.390;2024-02-26T07:44:15;33.95;;;16.25;;
55364;SDS011;41245;45.384;20.390;2024-02-26T07:46:41;30.70;;;16.40;;
55364;SDS011;41245;45.384;20.390;2024-02-26T07:49:07;30.15;;;17.58;;
55364;SDS011;41245;45.384;20.390;2024-02-26T07:51:33;29.27;;;16.08;;
55364;SDS011;41245;45.384;20.390;2024-02-26T07:54:00;34.80;;;18.10;;
55364;SDS011;41245;45.384;20.390;2024-02-26T07:56:26;33.17;;;17.17;;
55364;SDS011;41245;45.384;20.390;2024-02-26T07:58:52;30.88;;;16.70;;
55364;SDS011;41245;45.384;20.390;2024-02-26T08:01:18;45.33;;;17.13;;
55364;SDS011;41245;45.384;20.390;2024-02-26T08:03:44;44.22;;;17.20;;
55364;SDS011;41245;45.384;20.390;2024-02-26T08:06:10;34.38;;;17.70;;
55364;SDS011;41245;45.384;20.390;2024-02-26T08:08:36;34.13;;;16.70;;
55364;SDS011;41245;45.384;20.390;2024-02-26T08:11:03;27.25;;;15.93;;
55364;SDS011;41245;45.384;20.390;2024-02-26T08:13:29;37.58;;;17.13;;
55364;SDS011;41245;45.384;20.390;2024-02-26T08:15:55;28.55;;;16.73;;
55364;SDS011;41245;45.384;20.390;2024-02-26T08:18:21;30.65;;;17.35;;
55364;SDS011;41245;45.384;20.390;2024-02-26T08:20:47;33.00;;;15.65;;
55364;SDS011;41245;45.384;20.390;2024-02-26T08:23:14;41.80;;;16.42;;
55364;SDS011;41245;45.384;20.390;2024-02-26T08:25:40;25.48;;;16.02;;
55364;SDS011;41245;45.384;20.390;2024-02-26T08:28:06;35.05;;;16.55;;
55364;SDS011;41245;45.384;20.390;2024-02-26T08:30:32;32.08;;;15.82;;
55364;SDS011;41245;45.384;20.390;2024-02-26T08:32:59;38.25;;;17.27;;
55364;SDS011;41245;45.384;20.390;2024-02-26T08:35:25;28.52;;;16.15;;
55364;SDS011;41245;45.384;20.390;2024-02-26T08:37:51;28.48;;;15.57;;
55364;SDS011;41245;45.384;20.390;2024-02-26T08:40:17;33.78;;;16.48;;
55364;SDS011;41245;45.384;20.390;2024-02-26T08:42:44;23.92;;;13.98;;
55364;SDS011;41245;45.384;20.390;2024-02-26T08:45:10;28.85;;;14.52;;
55364;SDS011;41245;45.384;20.390;2024-02-26T08:47:37;25.42;;;14.23;;
55364;SDS011;41245;45.384;20.390;2024-02-26T08:50:04;22.25;;;13.07;;
55364;SDS011;41245;45.384;20.390;2024-02-26T08:52:31;33.90;;;14.27;;
55364;SDS011;41245;45.384;20.390;2024-02-26T08:54:58;29.10;;;13.57;;
55364;SDS011;41245;45.384;20.390;2024-02-26T08:57:24;24.85;;;16.77;;
55364;SDS011;41245;45.384;20.390;2024-02-26T08:59:53;23.60;;;12.43;;
55364;SDS011;41245;45.384;20.390;2024-02-26T09:02:19;28.60;;;15.13;;
55364;SDS011;41245;45.384;20.390;2024-02-26T09:04:45;35.17;;;15.07;;
55364;SDS011;41245;45.384;20.390;2024-02-26T09:07:12;30.27;;;15.10;;
55364;SDS011;41245;45.384;20.390;2024-02-26T09:09:38;26.70;;;15.40;;
55364;SDS011;41245;45.384;20.390;2024-02-26T09:12:04;23.70;;;14.82;;
55364;SDS011;41245;45.384;20.390;2024-02-26T09:14:30;29.58;;;13.13;;
55364;SDS011;41245;45.384;20.390;2024-02-26T09:16:56;23.50;;;13.50;;
55364;SDS011;41245;45.384;20.390;2024-02-26T09:19:23;20.92;;;11.90;;
55364;SDS011;41245;45.384;20.390;2024-02-26T09:21:50;22.10;;;12.02;;
55364;SDS011;41245;45.384;20.390;2024-02-26T09:24:16;20.13;;;10.57;;
55364;SDS011;41245;45.384;20.390;2024-02-26T09:26:42;22.67;;;10.88;;
55364;SDS011;41245;45.384;20.390;2024-02-26T09:29:08;21.90;;;10.80;;
55364;SDS011;41245;45.384;20.390;2024-02-26T09:31:34;22.33;;;11.05;;
55364;SDS011;41245;45.384;20.390;2024-02-26T09:34:01;22.83;;;10.20;;
55364;SDS011;41245;45.384;20.390;2024-02-26T09:36:27;17.60;;;10.43;;
55364;SDS011;41245;45.384;20.390;2024-02-26T09:38:53;24.17;;;11.38;;
55364;SDS011;41245;45.384;20.390;2024-02-26T09:41:19;18.02;;;8.50;;
55364;SDS011;41245;45.384;20.390;2024-02-26T09:43:45;17.75;;;9.43;;
55364;SDS011;41245;45.384;20.390;2024-02-26T09:46:14;24.75;;;9.15;;
55364;SDS011;41245;45.384;20.390;2024-02-26T09:48:42;31.55;;;9.48;;
55364;SDS011;41245;45.384;20.390;2024-02-26T09:51:10;15.50;;;8.70;;
55364;SDS011;41245;45.384;20.390;2024-02-26T09:53:39;17.98;;;8.30;;
55364;SDS011;41245;45.384;20.390;2024-02-26T09:56:08;17.23;;;8.68;;
55364;SDS011;41245;45.384;20.390;2024-02-26T09:58:34;15.30;;;7.75;;
55364;SDS011;41245;45.384;20.390;2024-02-26T10:01:02;17.65;;;8.40;;
55364;SDS011;41245;45.384;20.390;2024-02-26T10:03:30;15.55;;;7.50;;
55364;SDS011;41245;45.384;20.390;2024-02-26T10:05:58;14.73;;;7.37;;
55364;SDS011;41245;45.384;20.390;2024-02-26T10:08:24;15.98;;;8.50;;
55364;SDS011;41245;45.384;20.390;2024-02-26T10:10:50;16.83;;;8.35;;
55364;SDS011;41245;45.384;20.390;2024-02-26T10:13:16;20.63;;;7.68;;
55364;SDS011;41245;45.384;20.390;2024-02-26T10:15:44;25.02;;;9.07;;
55364;SDS011;41245;45.384;20.390;2024-02-26T10:18:11;15.18;;;8.18;;
55364;SDS011;41245;45.384;20.390;2024-02-26T10:20:37;10.23;;;7.70;;
55364;SDS011;41245;45.384;20.390;2024-02-26T10:23:03;23.90;;;7.95;;
55364;SDS011;41245;45.384;20.390;2024-02-26T10:25:30;13.88;;;6.95;;
55364;SDS011;41245;45.384;20.390;2024-02-26T10:27:59;9.48;;;6.15;;
55364;SDS011;41245;45.384;20.390;2024-02-26T10:30:28;16.75;;;8.90;;
55364;SDS011;41245;45.384;20.390;2024-02-26T10:32:55;13.85;;;7.63;;
55364;SDS011;41245;45.384;20.390;2024-02-26T10:35:22;14.05;;;7.82;;
55364;SDS011;41245;45.384;20.390;2024-02-26T10:37:49;17.33;;;10.07;;
55364;SDS011;41245;45.384;20.390;2024-02-26T10:40:15;16.33;;;8.05;;
55364;SDS011;41245;45.384;20.390;2024-02-26T10:42:41;14.88;;;8.55;;
55364;SDS011;41245;45.384;20.390;2024-02-26T10:45:08;18.50;;;7.57;;
55364;SDS011;41245;45.384;20.390;2024-02-26T10:47:35;31.70;;;10.70;;
55364;SDS011;41245;45.384;20.390;2024-02-26T10:50:04;13.75;;;7.32;;
55364;SDS011;41245;45.384;20.390;2024-02-26T10:52:31;19.98;;;8.02;;
55364;SDS011;41245;45.384;20.390;2024-02-26T10:57:28;15.45;;;8.45;;
55364;SDS011;41245;45.384;20.390;2024-02-26T10:59:57;16.48;;;8.82;;
55364;SDS011;41245;45.384;20.390;2024-02-26T11:02:23;14.65;;;8.88;;
55364;SDS011;41245;45.384;20.390;2024-02-26T11:04:50;10.85;;;8.13;;
55364;SDS011;41245;45.384;20.390;2024-02-26T11:07:16;15.73;;;7.40;;
55364;SDS011;41245;45.384;20.390;2024-02-26T11:09:43;24.25;;;7.38;;
55364;SDS011;41245;45.384;20.390;2024-02-26T11:12:12;19.38;;;7.38;;
55364;SDS011;41245;45.384;20.390;2024-02-26T11:14:42;13.93;;;7.57;;
55364;SDS011;41245;45.384;20.390;2024-02-26T11:17:09;13.38;;;7.32;;
55364;SDS011;41245;45.384;20.390;2024-02-26T11:19:36;17.63;;;8.32;;
55364;SDS011;41245;45.384;20.390;2024-02-26T11:22:03;13.70;;;8.63;;
55364;SDS011;41245;45.384;20.390;2024-02-26T11:24:30;14.10;;;8.43;;
55364;SDS011;41245;45.384;20.390;2024-02-26T11:26:58;12.73;;;7.07;;
55364;SDS011;41245;45.384;20.390;2024-02-26T11:29:31;20.52;;;9.73;;
55364;SDS011;41245;45.384;20.390;2024-02-26T11:31:59;18.02;;;10.60;;
55364;SDS011;41245;45.384;20.390;2024-02-26T11:34:25;13.07;;;7.40;;
55364;SDS011;41245;45.384;20.390;2024-02-26T11:36:52;14.02;;;7.03;;
55364;SDS011;41245;45.384;20.390;2024-02-26T11:39:18;12.45;;;7.22;;
55364;SDS011;41245;45.384;20.390;2024-02-26T11:41:45;13.70;;;6.45;;
55364;SDS011;41245;45.384;20.390;2024-02-26T11:44:12;15.68;;;7.32;;
55364;SDS011;41245;45.384;20.390;2024-02-26T11:46:41;12.25;;;6.60;;
55364;SDS011;41245;45.384;20.390;2024-02-26T11:51:51;13.60;;;6.95;;
55364;SDS011;41245;45.384;20.390;2024-02-26T11:57:02;16.98;;;6.72;;
55364;SDS011;41245;45.384;20.390;2024-02-26T11:59:37;13.32;;;5.82;;
55364;SDS011;41245;45.384;20.390;2024-02-26T12:02:03;9.82;;;5.93;;
55364;SDS011;41245;45.384;20.390;2024-02-26T12:04:30;14.32;;;7.05;;
55364;SDS011;41245;45.384;20.390;2024-02-26T12:06:57;14.50;;;6.63;;
55364;SDS011;41245;45.384;20.390;2024-02-26T12:12:03;13.00;;;7.15;;
55364;SDS011;41245;45.384;20.390;2024-02-26T12:14:29;10.98;;;6.70;;
55364;SDS011;41245;45.384;20.390;2024-02-26T12:16:55;8.25;;;5.28;;
55364;SDS011;41245;45.384;20.390;2024-02-26T12:19:23;12.10;;;6.30;;
55364;SDS011;41245;45.384;20.390;2024-02-26T12:21:51;8.95;;;5.80;;
55364;SDS011;41245;45.384;20.390;2024-02-26T12:24:19;8.73;;;5.75;;
55364;SDS011;41245;45.384;20.390;2024-02-26T12:26:46;10.35;;;5.28;;
55364;SDS011;41245;45.384;20.390;2024-02-26T12:29:12;12.32;;;6.03;;
55364;SDS011;41245;45.384;20.390;2024-02-26T12:31:39;8.15;;;5.43;;
55364;SDS011;41245;45.384;20.390;2024-02-26T12:34:06;7.32;;;5.20;;
55364;SDS011;41245;45.384;20.390;2024-02-26T12:36:35;12.38;;;6.00;;
55364;SDS011;41245;45.384;20.390;2024-02-26T12:39:03;8.02;;;5.32;;
55364;SDS011;41245;45.384;20.390;2024-02-26T12:41:33;9.10;;;5.82;;
55364;SDS011;41245;45.384;20.390;2024-02-26T12:44:00;11.85;;;6.40;;
55364;SDS011;41245;45.384;20.390;2024-02-26T12:46:26;9.38;;;4.72;;
55364;SDS011;41245;45.384;20.390;2024-02-26T12:48:54;8.80;;;5.53;;
55364;SDS011;41245;45.384;20.390;2024-02-26T12:51:22;7.40;;;5.75;;
55364;SDS011;41245;45.384;20.390;2024-02-26T12:53:49;11.45;;;5.07;;
55364;SDS011;41245;45.384;20.390;2024-02-26T12:56:17;9.30;;;5.90;;
55364;SDS011;41245;45.384;20.390;2024-02-26T12:58:43;11.73;;;5.38;;
55364;SDS011;41245;45.384;20.390;2024-02-26T13:01:14;11.05;;;5.40;;
55364;SDS011;41245;45.384;20.390;2024-02-26T13:03:40;9.32;;;4.47;;
55364;SDS011;41245;45.384;20.390;2024-02-26T13:06:07;10.43;;;5.88;;
55364;SDS011;41245;45.384;20.390;2024-02-26T13:08:33;9.55;;;5.32;;
55364;SDS011;41245;45.384;20.390;2024-02-26T13:10:59;12.15;;;5.32;;
55364;SDS011;41245;45.384;20.390;2024-02-26T13:13:26;16.17;;;6.75;;
55364;SDS011;41245;45.384;20.390;2024-02-26T13:16:05;17.58;;;6.25;;
55364;SDS011;41245;45.384;20.390;2024-02-26T13:18:33;12.55;;;6.13;;
55364;SDS011;41245;45.384;20.390;2024-02-26T13:23:35;8.48;;;4.90;;
55364;SDS011;41245;45.384;20.390;2024-02-26T13:26:01;10.02;;;5.60;;
55364;SDS011;41245;45.384;20.390;2024-02-26T13:28:27;13.45;;;5.72;;
55364;SDS011;41245;45.384;20.390;2024-02-26T13:30:54;12.27;;;6.05;;
55364;SDS011;41245;45.384;20.390;2024-02-26T13:33:25;11.10;;;5.85;;
55364;SDS011;41245;45.384;20.390;2024-02-26T13:35:52;8.20;;;4.97;;
55364;SDS011;41245;45.384;20.390;2024-02-26T13:38:18;11.68;;;5.30;;
55364;SDS011;41245;45.384;20.390;2024-02-26T13:40:44;9.20;;;5.43;;
55364;SDS011;41245;45.384;20.390;2024-02-26T13:43:10;12.98;;;5.95;;
55364;SDS011;41245;45.384;20.390;2024-02-26T13:45:37;12.77;;;5.10;;
55364;SDS011;41245;45.384;20.390;2024-02-26T13:48:04;8.65;;;4.63;;
55364;SDS011;41245;45.384;20.390;2024-02-26T13:50:30;11.85;;;4.97;;
55364;SDS011;41245;45.384;20.390;2024-02-26T13:52:57;8.05;;;4.30;;
55364;SDS011;41245;45.384;20.390;2024-02-26T13:55:26;8.55;;;5.25;;
55364;SDS011;41245;45.384;20.390;2024-02-26T13:57:56;9.48;;;5.40;;
55364;SDS011;41245;45.384;20.390;2024-02-26T14:00:23;8.02;;;4.43;;
55364;SDS011;41245;45.384;20.390;2024-02-26T14:02:50;8.57;;;4.20;;
55364;SDS011;41245;45.384;20.390;2024-02-26T14:05:16;9.57;;;4.45;;
55364;SDS011;41245;45.384;20.390;2024-02-26T14:07:42;3.80;;;3.40;;
55364;SDS011;41245;45.384;20.390;2024-02-26T14:10:08;9.18;;;3.80;;
55364;SDS011;41245;45.384;20.390;2024-02-26T14:12:35;10.25;;;3.28;;
55364;SDS011;41245;45.384;20.390;2024-02-26T14:15:01;9.32;;;4.15;;
55364;SDS011;41245;45.384;20.390;2024-02-26T14:17:30;8.82;;;4.40;;
55364;SDS011;41245;45.384;20.390;2024-02-26T14:19:56;6.47;;;3.83;;
55364;SDS011;41245;45.384;20.390;2024-02-26T14:22:22;8.95;;;4.22;;